createdAt,value
2018-12-27T14:09:55.363Z,91.20
2018-12-27T14:12:23.797Z,91.60
2018-12-27T14:14:52.165Z,91.70
2018-12-27T14:17:20.576Z,92.40
2018-12-27T14:19:48.983Z,92.70
2018-12-27T14:22:19.028Z,93.30
2018-12-27T14:24:47.427Z,93.70
2018-12-27T14:27:15.819Z,94.60
2018-12-27T14:29:44.348Z,94.50
2018-12-27T14:32:12.813Z,95.00
2018-12-27T14:34:41.198Z,95.70
2018-12-27T14:37:09.651Z,95.60
2018-12-27T14:39:38.040Z,95.50
2018-12-27T14:42:06.435Z,95.20
2018-12-27T14:44:34.817Z,95.40
2018-12-27T14:47:03.392Z,97.00
2018-12-27T14:49:34.674Z,96.30
2018-12-27T14:52:03.107Z,98.10
2018-12-27T14:54:31.483Z,99.90
2018-12-27T14:56:59.965Z,99.90
2018-12-27T14:59:28.399Z,99.90
2018-12-27T15:01:56.790Z,99.90
2018-12-27T15:04:25.247Z,99.90
2018-12-27T15:06:53.616Z,99.90
2018-12-27T15:09:22.034Z,99.90
2018-12-27T15:11:50.638Z,99.90
2018-12-27T15:14:19.128Z,99.90
2018-12-27T15:16:47.498Z,99.90
2018-12-27T15:19:15.909Z,99.90
2018-12-27T15:21:44.339Z,99.90
2018-12-27T15:24:12.722Z,99.90
2018-12-27T15:26:41.089Z,99.90
2018-12-27T15:29:09.537Z,99.90
2018-12-27T15:31:37.952Z,99.90
2018-12-27T15:34:06.384Z,99.90
2018-12-27T15:36:34.793Z,99.90
2018-12-27T15:39:03.673Z,99.90
2018-12-27T15:41:32.109Z,99.90
2018-12-27T15:44:00.487Z,99.90
2018-12-27T15:46:28.866Z,99.90
2018-12-27T15:48:57.282Z,99.90
2018-12-27T15:51:25.706Z,99.90
2018-12-27T15:53:54.126Z,99.90
2018-12-27T15:56:22.531Z,99.90
2018-12-27T15:58:50.967Z,99.90
2018-12-27T16:01:19.348Z,99.90
2018-12-27T16:03:47.779Z,99.90
2018-12-27T16:06:16.153Z,99.90
2018-12-27T16:08:44.594Z,99.90
2018-12-27T16:11:13.014Z,99.90
2018-12-27T16:13:41.398Z,99.90
2018-12-27T16:16:09.847Z,99.90
2018-12-27T16:18:38.221Z,99.90
2018-12-27T16:21:06.632Z,99.90
2018-12-27T16:23:35.016Z,99.90
2018-12-27T16:26:03.474Z,99.90
2018-12-27T16:28:32.182Z,99.90
2018-12-27T16:31:00.811Z,99.90
2018-12-27T16:33:29.241Z,99.90
2018-12-27T16:35:57.668Z,99.90
2018-12-27T16:38:26.112Z,99.90
2018-12-27T16:40:54.663Z,99.90
2018-12-27T16:43:23.104Z,99.90
2018-12-27T16:45:51.563Z,99.90
2018-12-27T16:48:20.073Z,99.90
2018-12-27T16:50:48.553Z,99.90
2018-12-27T16:53:16.954Z,99.90
2018-12-27T16:56:14.706Z,99.90
2018-12-27T16:58:39.004Z,99.90
2018-12-27T17:01:07.468Z,99.90
2018-12-27T17:03:35.848Z,99.90
2018-12-27T17:06:07.781Z,99.90
2018-12-27T17:08:36.270Z,99.90
2018-12-27T17:11:07.061Z,99.90
2018-12-27T17:13:40.512Z,99.90
2018-12-27T17:16:10.633Z,99.90
2018-12-27T17:18:40.773Z,99.90
2018-12-27T17:21:09.341Z,99.90
2018-12-27T17:23:42.172Z,99.90
2018-12-27T17:26:07.962Z,99.90
2018-12-27T17:28:36.463Z,99.90
2018-12-27T17:31:04.937Z,99.90
2018-12-27T17:33:33.414Z,99.90
2018-12-27T17:36:01.904Z,99.90
2018-12-27T17:38:30.331Z,99.90
2018-12-27T17:40:58.766Z,99.90
2018-12-27T17:43:27.205Z,99.90
2018-12-27T17:45:55.710Z,99.90
2018-12-27T17:48:24.188Z,99.90
2018-12-27T17:50:55.738Z,99.90
2018-12-27T17:53:24.251Z,99.90
2018-12-27T17:55:52.731Z,99.90
2018-12-27T17:58:21.162Z,99.90
2018-12-27T18:00:49.670Z,99.90
2018-12-27T18:03:18.121Z,99.90
2018-12-27T18:05:46.590Z,99.90
2018-12-27T18:08:15.062Z,99.90
2018-12-27T18:10:43.494Z,99.90
2018-12-27T18:13:11.862Z,99.90
2018-12-27T18:15:40.252Z,99.90
2018-12-27T18:18:08.673Z,99.90
2018-12-27T18:20:37.072Z,99.90
2018-12-27T18:23:05.489Z,99.90
2018-12-27T18:25:33.867Z,99.90
2018-12-27T18:28:02.301Z,99.90
2018-12-27T18:30:30.676Z,99.90
2018-12-27T18:32:59.328Z,99.90
2018-12-27T18:35:27.818Z,99.90
2018-12-27T18:37:56.204Z,99.90
2018-12-27T18:40:24.597Z,99.90
2018-12-27T18:42:53.027Z,99.90
2018-12-27T18:45:21.401Z,99.90
2018-12-27T18:47:49.842Z,99.90
2018-12-27T18:50:18.305Z,99.90
2018-12-27T18:52:46.764Z,99.90
2018-12-27T18:55:20.031Z,99.90
2018-12-27T18:57:45.242Z,99.90
2018-12-27T19:00:13.695Z,99.90
2018-12-27T19:02:42.366Z,99.90
2018-12-27T19:05:10.858Z,99.90
2018-12-27T19:07:44.959Z,99.90
2018-12-27T19:10:09.376Z,99.90
2018-12-27T19:13:03.556Z,99.90
2018-12-27T19:15:34.716Z,99.90
2018-12-27T19:18:05.247Z,99.90
2018-12-27T19:20:34.998Z,99.90
2018-12-27T19:23:06.698Z,99.90
2018-12-27T19:25:35.182Z,99.90
2018-12-27T19:28:03.579Z,99.90
2018-12-27T19:30:32.009Z,99.90
2018-12-27T19:33:00.410Z,99.90
2018-12-27T19:35:28.903Z,99.90
2018-12-27T19:37:57.301Z,99.90
2018-12-27T19:40:25.763Z,99.90
2018-12-27T19:42:54.171Z,99.90
2018-12-27T19:45:22.602Z,99.90
2018-12-27T19:47:51.109Z,99.90
2018-12-27T19:50:19.578Z,99.90
2018-12-27T19:52:48.005Z,99.90
2018-12-27T19:55:16.482Z,99.90
2018-12-27T19:57:44.940Z,99.90
2018-12-27T20:00:13.399Z,99.90
2018-12-27T20:02:43.456Z,99.90
2018-12-27T20:05:11.950Z,99.90
2018-12-27T20:07:40.328Z,99.90
2018-12-27T20:10:08.878Z,99.90
2018-12-27T20:12:37.321Z,99.90
2018-12-27T20:15:06.131Z,99.90
2018-12-27T20:17:34.582Z,99.90
2018-12-27T20:20:03.021Z,99.90
2018-12-27T20:22:31.635Z,99.90
2018-12-27T20:25:00.172Z,99.90
2018-12-27T20:27:30.186Z,99.90
2018-12-27T20:29:58.627Z,99.90
2018-12-27T20:32:27.076Z,99.90
2018-12-27T20:34:55.545Z,99.90
2018-12-27T20:37:23.928Z,99.90
2018-12-27T20:39:52.409Z,99.90
2018-12-27T20:42:20.848Z,99.90
2018-12-27T20:44:49.280Z,99.90
2018-12-27T20:47:17.794Z,99.90
2018-12-27T20:49:46.139Z,99.90
2018-12-27T20:52:14.589Z,99.90
2018-12-27T20:54:43.012Z,99.90
2018-12-27T20:57:11.449Z,99.90
2018-12-27T20:59:39.905Z,99.90
2018-12-27T21:02:08.361Z,99.90
2018-12-27T21:04:36.861Z,99.90
2018-12-27T21:07:05.287Z,99.90
2018-12-27T21:09:33.687Z,99.90
2018-12-27T21:12:02.176Z,99.90
2018-12-27T21:14:30.575Z,99.90
2018-12-27T21:16:59.137Z,99.90
2018-12-27T21:19:27.586Z,99.90
2018-12-27T21:21:56.030Z,99.90
2018-12-27T21:24:24.490Z,99.90
2018-12-27T21:26:52.906Z,99.90
2018-12-27T21:29:21.298Z,99.90
2018-12-27T21:31:49.771Z,99.90
2018-12-27T21:34:18.239Z,99.90
2018-12-27T21:36:46.721Z,99.90
2018-12-27T21:39:15.169Z,99.90
2018-12-27T21:41:43.620Z,99.90
2018-12-27T21:44:12.120Z,99.90
2018-12-27T21:46:40.541Z,99.90
2018-12-27T21:49:10.842Z,99.90
2018-12-27T21:51:39.293Z,99.90
2018-12-27T21:54:07.713Z,99.90
2018-12-27T21:56:36.144Z,99.90
2018-12-27T21:59:04.549Z,99.90
2018-12-27T22:01:33.044Z,99.90
2018-12-27T22:04:01.435Z,99.90
2018-12-27T22:06:29.878Z,99.90
2018-12-27T22:08:58.279Z,99.90
2018-12-27T22:11:26.680Z,99.90
2018-12-27T22:13:55.149Z,99.90
2018-12-27T22:16:23.651Z,99.90
2018-12-27T22:18:52.070Z,99.90
2018-12-27T22:21:20.489Z,99.90
2018-12-27T22:23:48.956Z,99.90
2018-12-27T22:26:17.354Z,99.90
2018-12-27T22:28:45.761Z,99.90
2018-12-27T22:31:14.161Z,99.90
2018-12-27T22:33:42.575Z,99.90
2018-12-27T22:36:11.015Z,99.90
2018-12-27T22:38:39.434Z,99.90
2018-12-27T22:41:07.824Z,99.90
2018-12-27T22:43:36.307Z,99.90
2018-12-27T22:46:04.746Z,99.90
2018-12-27T22:48:33.152Z,99.90
2018-12-27T22:51:01.555Z,99.90
2018-12-27T22:53:30.157Z,99.90
2018-12-27T22:55:58.525Z,99.90
2018-12-27T22:58:27.003Z,99.90
2018-12-27T23:00:55.553Z,99.90
2018-12-27T23:03:23.961Z,99.90
2018-12-27T23:05:52.361Z,99.90
2018-12-27T23:08:20.801Z,99.90
2018-12-27T23:10:49.263Z,99.90
2018-12-27T23:13:17.744Z,99.90
2018-12-27T23:15:46.132Z,99.90
2018-12-27T23:18:14.564Z,99.90
2018-12-27T23:20:42.957Z,99.90
2018-12-27T23:23:11.393Z,99.90
2018-12-27T23:25:39.794Z,99.90
2018-12-27T23:28:08.227Z,99.90
2018-12-27T23:30:36.645Z,99.90
2018-12-27T23:33:05.085Z,99.90
2018-12-27T23:35:33.539Z,99.90
2018-12-27T23:38:01.960Z,99.90
2018-12-27T23:40:30.432Z,99.90
2018-12-27T23:42:58.851Z,99.90
2018-12-27T23:45:27.290Z,99.90
2018-12-27T23:47:55.761Z,99.90
2018-12-27T23:50:24.180Z,99.90
2018-12-27T23:52:52.581Z,99.90
2018-12-27T23:55:21.001Z,99.90
2018-12-27T23:57:49.414Z,99.90
